sensor_id;sensor_type;location;lat;lon;timestamp;temperature;humidity
37642;DHT22;23486;51.956;5.888;2023-04-01T00:00:17;10.30;99.90
37642;DHT22;23486;51.956;5.888;2023-04-01T00:02:43;10.30;99.90
37642;DHT22;23486;51.956;5.888;2023-04-01T00:05:09;10.30;99.90
37642;DHT22;23486;51.956;5.888;2023-04-01T00:07:36;10.30;99.90
37642;DHT22;23486;51.956;5.888;2023-04-01T00:10:03;10.30;99.90
37642;DHT22;23486;51.956;5.888;2023-04-01T00:12:29;10.20;99.90
37642;DHT22;23486;51.956;5.888;2023-04-01T00:14:55;10.20;99.90
37642;DHT22;23486;51.956;5.888;2023-04-01T00:17:20;10.20;99.90
37642;DHT22;23486;51.956;5.888;2023-04-01T00:19:46;10.20;99.90
37642;DHT22;23486;51.956;5.888;2023-04-01T00:22:12;10.20;99.90
37642;DHT22;23486;51.956;5.888;2023-04-01T00:24:38;10.20;99.90
37642;DHT22;23486;51.956;5.888;2023-04-01T00:27:04;10.30;99.90
37642;DHT22;23486;51.956;5.888;2023-04-01T00:29:30;10.20;99.90
37642;DHT22;23486;51.956;5.888;2023-04-01T00:31:58;10.20;99.90
37642;DHT22;23486;51.956;5.888;2023-04-01T00:34:24;10.20;99.90
37642;DHT22;23486;51.956;5.888;2023-04-01T00:36:51;10.20;99.90
37642;DHT22;23486;51.956;5.888;2023-04-01T00:39:18;10.20;99.90
37642;DHT22;23486;51.956;5.888;2023-04-01T00:41:44;10.20;99.90
37642;DHT22;23486;51.956;5.888;2023-04-01T00:44:33;10.20;99.90
37642;DHT22;23486;51.956;5.888;2023-04-01T00:47:00;10.20;99.90
37642;DHT22;23486;51.956;5.888;2023-04-01T00:49:38;10.20;99.90
37642;DHT22;23486;51.956;5.888;2023-04-01T00:52:05;10.20;99.90
37642;DHT22;23486;51.956;5.888;2023-04-01T00:54:33;10.20;99.90
37642;DHT22;23486;51.956;5.888;2023-04-01T00:57:04;10.20;99.90
37642;DHT22;23486;51.956;5.888;2023-04-01T00:59:37;10.20;99.90
37642;DHT22;23486;51.956;5.888;2023-04-01T01:02:07;10.20;99.90
37642;DHT22;23486;51.956;5.888;2023-04-01T01:04:34;10.20;99.90
37642;DHT22;23486;51.956;5.888;2023-04-01T01:10:00;10.30;99.90
37642;DHT22;23486;51.956;5.888;2023-04-01T01:15:40;10.20;99.90
37642;DHT22;23486;51.956;5.888;2023-04-01T01:18:26;10.20;99.90
37642;DHT22;23486;51.956;5.888;2023-04-01T01:29:25;10.30;99.90
37642;DHT22;23486;51.956;5.888;2023-04-01T01:32:13;10.30;99.90
37642;DHT22;23486;51.956;5.888;2023-04-01T01:37:31;10.20;99.90
37642;DHT22;23486;51.956;5.888;2023-04-01T01:40:04;10.20;99.90
37642;DHT22;23486;51.956;5.888;2023-04-01T01:42:31;10.20;99.90
37642;DHT22;23486;51.956;5.888;2023-04-01T01:44:59;10.20;99.90
37642;DHT22;23486;51.956;5.888;2023-04-01T01:47:27;10.20;99.90
37642;DHT22;23486;51.956;5.888;2023-04-01T01:49:54;10.20;99.90
37642;DHT22;23486;51.956;5.888;2023-04-01T01:52:24;10.20;99.90
37642;DHT22;23486;51.956;5.888;2023-04-01T01:54:55;10.20;99.90
37642;DHT22;23486;51.956;5.888;2023-04-01T01:57:33;10.20;99.90
37642;DHT22;23486;51.956;5.888;2023-04-01T02:00:12;10.10;99.90
37642;DHT22;23486;51.956;5.888;2023-04-01T02:02:45;10.10;99.90
37642;DHT22;23486;51.956;5.888;2023-04-01T02:05:21;10.10;99.90
37642;DHT22;23486;51.956;5.888;2023-04-01T02:07:52;10.10;99.90
37642;DHT22;23486;51.956;5.888;2023-04-01T02:10:21;10.10;99.90
37642;DHT22;23486;51.956;5.888;2023-04-01T02:12:49;10.10;99.90
37642;DHT22;23486;51.956;5.888;2023-04-01T02:15:16;10.10;99.90
37642;DHT22;23486;51.956;5.888;2023-04-01T02:17:43;10.00;99.90
37642;DHT22;23486;51.956;5.888;2023-04-01T02:20:17;10.00;99.90
37642;DHT22;23486;51.956;5.888;2023-04-01T02:22:48;9.90;99.90
37642;DHT22;23486;51.956;5.888;2023-04-01T02:25:18;9.90;99.90
37642;DHT22;23486;51.956;5.888;2023-04-01T02:27:46;9.90;99.90
37642;DHT22;23486;51.956;5.888;2023-04-01T02:30:13;9.80;99.90
37642;DHT22;23486;51.956;5.888;2023-04-01T02:32:40;9.90;99.90
37642;DHT22;23486;51.956;5.888;2023-04-01T02:35:08;9.90;99.90
37642;DHT22;23486;51.956;5.888;2023-04-01T02:37:39;9.90;99.90
37642;DHT22;23486;51.956;5.888;2023-04-01T02:40:10;9.90;99.90
37642;DHT22;23486;51.956;5.888;2023-04-01T02:42:36;9.90;99.90
37642;DHT22;23486;51.956;5.888;2023-04-01T02:45:02;9.80;99.90
37642;DHT22;23486;51.956;5.888;2023-04-01T02:47:28;9.90;99.90
37642;DHT22;23486;51.956;5.888;2023-04-01T02:49:54;9.90;99.90
37642;DHT22;23486;51.956;5.888;2023-04-01T02:52:27;9.90;99.90
37642;DHT22;23486;51.956;5.888;2023-04-01T02:54:55;9.90;99.90
37642;DHT22;23486;51.956;5.888;2023-04-01T02:57:21;9.80;99.90
37642;DHT22;23486;51.956;5.888;2023-04-01T02:59:47;9.90;99.90
37642;DHT22;23486;51.956;5.888;2023-04-01T03:02:13;9.90;99.90
37642;DHT22;23486;51.956;5.888;2023-04-01T03:04:39;9.90;99.90
37642;DHT22;23486;51.956;5.888;2023-04-01T03:07:05;9.80;99.90
37642;DHT22;23486;51.956;5.888;2023-04-01T03:09:31;9.80;99.90
37642;DHT22;23486;51.956;5.888;2023-04-01T03:11:56;9.80;99.90
37642;DHT22;23486;51.956;5.888;2023-04-01T03:14:22;9.80;99.90
37642;DHT22;23486;51.956;5.888;2023-04-01T03:16:50;9.80;99.90
37642;DHT22;23486;51.956;5.888;2023-04-01T03:19:16;9.80;99.90
37642;DHT22;23486;51.956;5.888;2023-04-01T03:21:45;9.70;99.90
37642;DHT22;23486;51.956;5.888;2023-04-01T03:24:10;9.70;99.90
37642;DHT22;23486;51.956;5.888;2023-04-01T03:26:36;9.70;99.90
37642;DHT22;23486;51.956;5.888;2023-04-01T03:29:07;9.70;99.90
37642;DHT22;23486;51.956;5.888;2023-04-01T03:31:33;9.70;99.90
37642;DHT22;23486;51.956;5.888;2023-04-01T03:33:59;9.70;99.90
37642;DHT22;23486;51.956;5.888;2023-04-01T03:36:25;9.70;99.90
37642;DHT22;23486;51.956;5.888;2023-04-01T03:38:50;9.70;99.90
37642;DHT22;23486;51.956;5.888;2023-04-01T03:41:17;9.70;99.90
37642;DHT22;23486;51.956;5.888;2023-04-01T03:43:43;9.70;99.90
37642;DHT22;23486;51.956;5.888;2023-04-01T03:46:09;9.70;99.90
37642;DHT22;23486;51.956;5.888;2023-04-01T03:48:35;9.70;99.90
37642;DHT22;23486;51.956;5.888;2023-04-01T03:51:07;9.60;99.90
37642;DHT22;23486;51.956;5.888;2023-04-01T03:53:33;9.60;99.90
37642;DHT22;23486;51.956;5.888;2023-04-01T03:55:58;9.60;99.90
37642;DHT22;23486;51.956;5.888;2023-04-01T03:58:28;9.60;99.90
37642;DHT22;23486;51.956;5.888;2023-04-01T04:00:53;9.60;99.90
37642;DHT22;23486;51.956;5.888;2023-04-01T04:03:19;9.60;99.90
37642;DHT22;23486;51.956;5.888;2023-04-01T04:05:49;9.60;99.90
37642;DHT22;23486;51.956;5.888;2023-04-01T04:08:21;9.60;99.90
37642;DHT22;23486;51.956;5.888;2023-04-01T04:10:47;9.60;99.90
37642;DHT22;23486;51.956;5.888;2023-04-01T04:13:13;9.60;99.90
37642;DHT22;23486;51.956;5.888;2023-04-01T04:15:39;9.60;99.90
37642;DHT22;23486;51.956;5.888;2023-04-01T04:18:04;9.60;99.90
37642;DHT22;23486;51.956;5.888;2023-04-01T04:20:30;9.60;99.90
37642;DHT22;23486;51.956;5.888;2023-04-01T04:22:56;9.60;99.90
37642;DHT22;23486;51.956;5.888;2023-04-01T04:25:21;9.60;99.90
37642;DHT22;23486;51.956;5.888;2023-04-01T04:27:47;9.50;99.90
37642;DHT22;23486;51.956;5.888;2023-04-01T04:30:13;9.50;99.90
37642;DHT22;23486;51.956;5.888;2023-04-01T04:32:38;9.60;99.90
37642;DHT22;23486;51.956;5.888;2023-04-01T04:35:04;9.50;99.90
37642;DHT22;23486;51.956;5.888;2023-04-01T04:37:31;9.50;99.90
37642;DHT22;23486;51.956;5.888;2023-04-01T04:39:57;9.50;99.90
37642;DHT22;23486;51.956;5.888;2023-04-01T04:42:22;9.60;99.90
37642;DHT22;23486;51.956;5.888;2023-04-01T04:44:48;9.50;99.90
37642;DHT22;23486;51.956;5.888;2023-04-01T04:47:14;9.50;99.90
37642;DHT22;23486;51.956;5.888;2023-04-01T04:49:39;9.50;99.90
37642;DHT22;23486;51.956;5.888;2023-04-01T04:52:05;9.50;99.90
37642;DHT22;23486;51.956;5.888;2023-04-01T04:54:34;9.50;99.90
37642;DHT22;23486;51.956;5.888;2023-04-01T04:57:00;9.50;99.90
37642;DHT22;23486;51.956;5.888;2023-04-01T04:59:25;9.50;99.90
37642;DHT22;23486;51.956;5.888;2023-04-01T05:01:51;9.50;99.90
37642;DHT22;23486;51.956;5.888;2023-04-01T05:04:16;9.50;99.90
37642;DHT22;23486;51.956;5.888;2023-04-01T05:06:42;9.50;99.90
37642;DHT22;23486;51.956;5.888;2023-04-01T05:09:08;9.50;99.90
37642;DHT22;23486;51.956;5.888;2023-04-01T05:11:34;9.50;99.90
37642;DHT22;23486;51.956;5.888;2023-04-01T05:14:00;9.50;99.90
37642;DHT22;23486;51.956;5.888;2023-04-01T05:16:25;9.50;99.90
37642;DHT22;23486;51.956;5.888;2023-04-01T05:18:54;9.40;99.90
37642;DHT22;23486;51.956;5.888;2023-04-01T05:21:19;9.50;99.90
37642;DHT22;23486;51.956;5.888;2023-04-01T05:23:45;9.50;99.90
37642;DHT22;23486;51.956;5.888;2023-04-01T05:26:13;9.40;99.90
37642;DHT22;23486;51.956;5.888;2023-04-01T05:28:39;9.50;99.90
37642;DHT22;23486;51.956;5.888;2023-04-01T05:31:05;9.50;99.90
37642;DHT22;23486;51.956;5.888;2023-04-01T05:33:31;9.50;99.90
37642;DHT22;23486;51.956;5.888;2023-04-01T05:36:14;9.50;99.90
37642;DHT22;23486;51.956;5.888;2023-04-01T05:38:41;9.50;99.90
37642;DHT22;23486;51.956;5.888;2023-04-01T05:41:07;9.60;99.90
37642;DHT22;23486;51.956;5.888;2023-04-01T05:43:36;9.60;99.90
37642;DHT22;23486;51.956;5.888;2023-04-01T05:46:02;9.60;99.90
37642;DHT22;23486;51.956;5.888;2023-04-01T05:48:28;9.60;99.90
37642;DHT22;23486;51.956;5.888;2023-04-01T05:50:53;9.60;99.90
37642;DHT22;23486;51.956;5.888;2023-04-01T05:53:19;9.70;99.90
37642;DHT22;23486;51.956;5.888;2023-04-01T05:55:44;9.70;99.90
37642;DHT22;23486;51.956;5.888;2023-04-01T05:58:10;9.70;99.90
37642;DHT22;23486;51.956;5.888;2023-04-01T06:00:36;9.70;99.90
37642;DHT22;23486;51.956;5.888;2023-04-01T06:03:02;9.70;99.90
37642;DHT22;23486;51.956;5.888;2023-04-01T06:05:29;9.70;99.90
37642;DHT22;23486;51.956;5.888;2023-04-01T06:07:59;9.70;99.90
37642;DHT22;23486;51.956;5.888;2023-04-01T06:16:45;9.80;99.90
37642;DHT22;23486;51.956;5.888;2023-04-01T06:19:32;9.80;99.90
37642;DHT22;23486;51.956;5.888;2023-04-01T06:30:54;9.80;99.90
37642;DHT22;23486;51.956;5.888;2023-04-01T06:33:27;9.80;99.90
37642;DHT22;23486;51.956;5.888;2023-04-01T06:36:07;9.80;99.90
37642;DHT22;23486;51.956;5.888;2023-04-01T06:39:14;9.80;99.90
37642;DHT22;23486;51.956;5.888;2023-04-01T06:42:02;9.80;99.90
37642;DHT22;23486;51.956;5.888;2023-04-01T06:47:40;9.90;99.90
37642;DHT22;23486;51.956;5.888;2023-04-01T06:53:21;10.00;99.90
37642;DHT22;23486;51.956;5.888;2023-04-01T06:56:10;9.90;99.90
37642;DHT22;23486;51.956;5.888;2023-04-01T06:58:48;10.00;99.90
37642;DHT22;23486;51.956;5.888;2023-04-01T07:01:29;10.00;99.90
37642;DHT22;23486;51.956;5.888;2023-04-01T07:04:03;10.00;99.90
37642;DHT22;23486;51.956;5.888;2023-04-01T07:09:26;10.00;99.90
37642;DHT22;23486;51.956;5.888;2023-04-01T07:11:56;10.00;99.90
37642;DHT22;23486;51.956;5.888;2023-04-01T07:14:30;10.00;99.90
37642;DHT22;23486;51.956;5.888;2023-04-01T07:17:17;10.10;99.90
37642;DHT22;23486;51.956;5.888;2023-04-01T07:22:38;10.20;99.90
37642;DHT22;23486;51.956;5.888;2023-04-01T07:25:18;10.20;99.90
37642;DHT22;23486;51.956;5.888;2023-04-01T07:27:46;10.20;99.90
37642;DHT22;23486;51.956;5.888;2023-04-01T07:30:21;10.20;99.90
37642;DHT22;23486;51.956;5.888;2023-04-01T07:33:09;10.20;99.90
37642;DHT22;23486;51.956;5.888;2023-04-01T07:35:47;10.20;99.90
37642;DHT22;23486;51.956;5.888;2023-04-01T07:41:02;10.20;99.90
37642;DHT22;23486;51.956;5.888;2023-04-01T07:46:45;10.30;99.90
37642;DHT22;23486;51.956;5.888;2023-04-01T07:49:15;10.30;99.90
37642;DHT22;23486;51.956;5.888;2023-04-01T07:52:06;10.30;99.90
37642;DHT22;23486;51.956;5.888;2023-04-01T07:54:57;10.30;99.90
37642;DHT22;23486;51.956;5.888;2023-04-01T07:57:53;10.30;99.90
37642;DHT22;23486;51.956;5.888;2023-04-01T08:00:30;10.40;99.90
37642;DHT22;23486;51.956;5.888;2023-04-01T08:08:36;10.50;99.90
37642;DHT22;23486;51.956;5.888;2023-04-01T08:14:12;10.50;99.90
37642;DHT22;23486;51.956;5.888;2023-04-01T08:21:58;10.70;99.90
37642;DHT22;23486;51.956;5.888;2023-04-01T08:24:44;10.70;99.90
37642;DHT22;23486;51.956;5.888;2023-04-01T08:27:49;10.70;99.90
37642;DHT22;23486;51.956;5.888;2023-04-01T08:30:41;10.70;99.90
37642;DHT22;23486;51.956;5.888;2023-04-01T08:33:19;10.70;99.90
37642;DHT22;23486;51.956;5.888;2023-04-01T08:36:07;10.70;99.90
37642;DHT22;23486;51.956;5.888;2023-04-01T08:38:51;10.70;99.90
37642;DHT22;23486;51.956;5.888;2023-04-01T08:52:45;10.70;99.90
37642;DHT22;23486;51.956;5.888;2023-04-01T08:55:38;10.80;99.90
37642;DHT22;23486;51.956;5.888;2023-04-01T09:01:09;10.80;99.90
37642;DHT22;23486;51.956;5.888;2023-04-01T09:03:44;10.90;99.90
37642;DHT22;23486;51.956;5.888;2023-04-01T09:06:32;10.80;99.90
37642;DHT22;23486;51.956;5.888;2023-04-01T09:12:39;10.90;99.90
37642;DHT22;23486;51.956;5.888;2023-04-01T09:18:45;10.90;99.90
37642;DHT22;23486;51.956;5.888;2023-04-01T09:24:26;11.10;99.90
37642;DHT22;23486;51.956;5.888;2023-04-01T09:32:53;11.10;99.90
37642;DHT22;23486;51.956;5.888;2023-04-01T09:35:47;11.00;99.90
37642;DHT22;23486;51.956;5.888;2023-04-01T09:38:22;11.00;99.90
37642;DHT22;23486;51.956;5.888;2023-04-01T09:44:04;10.90;99.90
37642;DHT22;23486;51.956;5.888;2023-04-01T09:52:20;11.00;99.90
37642;DHT22;23486;51.956;5.888;2023-04-01T10:13:19;10.70;99.90
37642;DHT22;23486;51.956;5.888;2023-04-01T10:50:45;10.90;99.90
37642;DHT22;23486;51.956;5.888;2023-04-01T11:07:43;11.50;99.90
37642;DHT22;23486;51.956;5.888;2023-04-01T11:29:46;11.70;99.90
37642;DHT22;23486;51.956;5.888;2023-04-01T11:47:10;11.30;99.90
37642;DHT22;23486;51.956;5.888;2023-04-01T12:00:33;11.30;99.90
37642;DHT22;23486;51.956;5.888;2023-04-01T12:15:02;11.20;99.90
37642;DHT22;23486;51.956;5.888;2023-04-01T12:17:56;11.20;99.90
37642;DHT22;23486;51.956;5.888;2023-04-01T12:36:23;10.90;99.90
37642;DHT22;23486;51.956;5.888;2023-04-01T12:39:33;10.90;99.90
37642;DHT22;23486;51.956;5.888;2023-04-01T12:59:28;10.90;99.90
37642;DHT22;23486;51.956;5.888;2023-04-01T13:02:22;11.00;99.90
37642;DHT22;23486;51.956;5.888;2023-04-01T13:05:36;11.00;99.90
37642;DHT22;23486;51.956;5.888;2023-04-01T13:22:46;11.30;99.90
37642;DHT22;23486;51.956;5.888;2023-04-01T13:27:49;11.40;99.90
37642;DHT22;23486;51.956;5.888;2023-04-01T13:44:38;11.60;99.90
37642;DHT22;23486;51.956;5.888;2023-04-01T13:55:39;11.60;99.90
37642;DHT22;23486;51.956;5.888;2023-04-01T14:06:26;11.50;99.90
37642;DHT22;23486;51.956;5.888;2023-04-01T14:17:44;11.40;99.90
37642;DHT22;23486;51.956;5.888;2023-04-01T14:20:22;11.40;99.90
37642;DHT22;23486;51.956;5.888;2023-04-01T14:26:11;11.40;99.90
37642;DHT22;23486;51.956;5.888;2023-04-01T14:29:02;11.40;99.90
37642;DHT22;23486;51.956;5.888;2023-04-01T14:31:34;11.40;99.90
37642;DHT22;23486;51.956;5.888;2023-04-01T14:37:11;11.40;99.90
37642;DHT22;23486;51.956;5.888;2023-04-01T14:39:57;11.40;99.90
37642;DHT22;23486;51.956;5.888;2023-04-01T14:47:51;11.40;99.90
37642;DHT22;23486;51.956;5.888;2023-04-01T14:50:29;11.40;99.90
37642;DHT22;23486;51.956;5.888;2023-04-01T14:55:58;11.40;99.90
37642;DHT22;23486;51.956;5.888;2023-04-01T14:58:39;11.40;99.90
37642;DHT22;23486;51.956;5.888;2023-04-01T15:14:41;11.20;99.90
37642;DHT22;23486;51.956;5.888;2023-04-01T15:17:19;11.20;99.90
37642;DHT22;23486;51.956;5.888;2023-04-01T15:19:58;11.20;99.90
37642;DHT22;23486;51.956;5.888;2023-04-01T15:25:43;11.20;99.90
37642;DHT22;23486;51.956;5.888;2023-04-01T15:28:24;11.20;99.90
37642;DHT22;23486;51.956;5.888;2023-04-01T15:36:56;11.40;99.90
37642;DHT22;23486;51.956;5.888;2023-04-01T15:39:35;11.40;99.90
37642;DHT22;23486;51.956;5.888;2023-04-01T15:42:47;11.40;99.90
37642;DHT22;23486;51.956;5.888;2023-04-01T15:45:11;11.40;99.90
37642;DHT22;23486;51.956;5.888;2023-04-01T15:47:59;11.30;99.90
37642;DHT22;23486;51.956;5.888;2023-04-01T15:52:57;11.20;99.90
37642;DHT22;23486;51.956;5.888;2023-04-01T15:58:25;11.10;99.90
37642;DHT22;23486;51.956;5.888;2023-04-01T16:11:57;10.90;99.90
37642;DHT22;23486;51.956;5.888;2023-04-01T16:22:39;10.90;99.90
37642;DHT22;23486;51.956;5.888;2023-04-01T16:25:19;10.90;99.90
37642;DHT22;23486;51.956;5.888;2023-04-01T16:36:29;10.90;99.90
37642;DHT22;23486;51.956;5.888;2023-04-01T16:48:13;10.80;99.90
37642;DHT22;23486;51.956;5.888;2023-04-01T16:53:45;10.70;99.90
37642;DHT22;23486;51.956;5.888;2023-04-01T16:56:20;10.70;99.90
37642;DHT22;23486;51.956;5.888;2023-04-01T17:04:18;10.50;99.90
37642;DHT22;23486;51.956;5.888;2023-04-01T17:07:11;10.50;99.90
37642;DHT22;23486;51.956;5.888;2023-04-01T17:12:44;10.40;99.90
37642;DHT22;23486;51.956;5.888;2023-04-01T17:17:58;10.30;99.90
37642;DHT22;23486;51.956;5.888;2023-04-01T17:20:48;10.30;99.90
37642;DHT22;23486;51.956;5.888;2023-04-01T17:39:53;10.00;99.90
37642;DHT22;23486;51.956;5.888;2023-04-01T17:42:40;9.90;99.90
37642;DHT22;23486;51.956;5.888;2023-04-01T17:50:49;9.80;99.90
37642;DHT22;23486;51.956;5.888;2023-04-01T17:53:34;9.80;99.90
37642;DHT22;23486;51.956;5.888;2023-04-01T17:56:32;9.80;99.90
37642;DHT22;23486;51.956;5.888;2023-04-01T17:59:36;9.70;99.90
37642;DHT22;23486;51.956;5.888;2023-04-01T18:05:19;9.70;99.90
37642;DHT22;23486;51.956;5.888;2023-04-01T18:07:57;9.70;99.90
37642;DHT22;23486;51.956;5.888;2023-04-01T18:10:48;9.70;99.90
37642;DHT22;23486;51.956;5.888;2023-04-01T18:13:28;9.70;99.90
37642;DHT22;23486;51.956;5.888;2023-04-01T18:16:02;9.60;99.90
37642;DHT22;23486;51.956;5.888;2023-04-01T18:19:03;9.50;99.90
37642;DHT22;23486;51.956;5.888;2023-04-01T18:21:45;9.50;99.90
37642;DHT22;23486;51.956;5.888;2023-04-01T18:24:23;9.40;99.90
37642;DHT22;23486;51.956;5.888;2023-04-01T18:32:29;9.30;99.90
37642;DHT22;23486;51.956;5.888;2023-04-01T18:35:24;9.30;99.90
37642;DHT22;23486;51.956;5.888;2023-04-01T18:38:12;9.30;99.90
37642;DHT22;23486;51.956;5.888;2023-04-01T18:40:45;9.20;99.90
37642;DHT22;23486;51.956;5.888;2023-04-01T18:43:33;9.30;99.90
37642;DHT22;23486;51.956;5.888;2023-04-01T18:49:06;9.20;99.90
37642;DHT22;23486;51.956;5.888;2023-04-01T18:51:37;9.20;99.90
37642;DHT22;23486;51.956;5.888;2023-04-01T18:56:41;9.10;99.90
37642;DHT22;23486;51.956;5.888;2023-04-01T18:59:20;9.10;99.90
37642;DHT22;23486;51.956;5.888;2023-04-01T19:05:10;9.10;99.90
37642;DHT22;23486;51.956;5.888;2023-04-01T19:07:42;9.20;99.90
37642;DHT22;23486;51.956;5.888;2023-04-01T19:13:26;9.10;99.90
37642;DHT22;23486;51.956;5.888;2023-04-01T19:19:01;9.00;99.90
37642;DHT22;23486;51.956;5.888;2023-04-01T19:21:39;9.00;99.90
37642;DHT22;23486;51.956;5.888;2023-04-01T19:35:48;8.90;99.90
37642;DHT22;23486;51.956;5.888;2023-04-01T19:38:40;8.90;99.90
37642;DHT22;23486;51.956;5.888;2023-04-01T19:43:53;8.80;99.90
37642;DHT22;23486;51.956;5.888;2023-04-01T19:46:58;8.80;99.90
37642;DHT22;23486;51.956;5.888;2023-04-01T19:57:37;8.50;99.90
37642;DHT22;23486;51.956;5.888;2023-04-01T20:05:48;8.50;99.90
37642;DHT22;23486;51.956;5.888;2023-04-01T20:08:23;8.40;99.90
37642;DHT22;23486;51.956;5.888;2023-04-01T20:17:32;8.30;99.90
37642;DHT22;23486;51.956;5.888;2023-04-01T20:20:01;8.30;99.90
37642;DHT22;23486;51.956;5.888;2023-04-01T20:23:16;8.30;99.90
37642;DHT22;23486;51.956;5.888;2023-04-01T20:25:26;8.30;99.90
37642;DHT22;23486;51.956;5.888;2023-04-01T20:31:16;8.20;99.90
37642;DHT22;23486;51.956;5.888;2023-04-01T20:36:43;8.20;99.90
37642;DHT22;23486;51.956;5.888;2023-04-01T20:39:32;8.20;99.90
37642;DHT22;23486;51.956;5.888;2023-04-01T20:47:51;8.10;99.90
37642;DHT22;23486;51.956;5.888;2023-04-01T20:50:31;8.10;99.90
37642;DHT22;23486;51.956;5.888;2023-04-01T20:53:15;8.10;99.90
37642;DHT22;23486;51.956;5.888;2023-04-01T20:55:55;8.00;99.90
37642;DHT22;23486;51.956;5.888;2023-04-01T21:01:13;7.90;99.90
37642;DHT22;23486;51.956;5.888;2023-04-01T21:03:44;7.90;99.90
37642;DHT22;23486;51.956;5.888;2023-04-01T21:06:44;7.90;99.90
37642;DHT22;23486;51.956;5.888;2023-04-01T21:09:35;7.90;99.90
37642;DHT22;23486;51.956;5.888;2023-04-01T21:18:23;7.90;99.90
37642;DHT22;23486;51.956;5.888;2023-04-01T21:34:49;7.70;99.90
37642;DHT22;23486;51.956;5.888;2023-04-01T21:49:17;7.60;99.90
37642;DHT22;23486;51.956;5.888;2023-04-01T21:54:50;7.60;99.90
37642;DHT22;23486;51.956;5.888;2023-04-01T22:02:54;7.50;99.90
37642;DHT22;23486;51.956;5.888;2023-04-01T22:11:22;7.40;99.90
37642;DHT22;23486;51.956;5.888;2023-04-01T22:14:15;7.40;99.90
37642;DHT22;23486;51.956;5.888;2023-04-01T22:19:23;7.40;99.90
37642;DHT22;23486;51.956;5.888;2023-04-01T22:25:24;7.40;99.90
37642;DHT22;23486;51.956;5.888;2023-04-01T22:27:49;7.40;99.90
37642;DHT22;23486;51.956;5.888;2023-04-01T22:30:24;7.30;99.90
37642;DHT22;23486;51.956;5.888;2023-04-01T22:32:57;7.30;99.90
37642;DHT22;23486;51.956;5.888;2023-04-01T22:35:48;7.30;99.90
37642;DHT22;23486;51.956;5.888;2023-04-01T22:38:35;7.30;99.90
37642;DHT22;23486;51.956;5.888;2023-04-01T22:41:29;7.30;99.90
37642;DHT22;23486;51.956;5.888;2023-04-01T22:43:58;7.30;99.90
37642;DHT22;23486;51.956;5.888;2023-04-01T22:49:09;7.30;99.90
37642;DHT22;23486;51.956;5.888;2023-04-01T22:51:55;7.20;99.90
37642;DHT22;23486;51.956;5.888;2023-04-01T22:54:39;7.20;99.90
37642;DHT22;23486;51.956;5.888;2023-04-01T23:02:11;7.10;99.90
37642;DHT22;23486;51.956;5.888;2023-04-01T23:04:42;7.00;99.90
37642;DHT22;23486;51.956;5.888;2023-04-01T23:10:41;7.00;99.90
37642;DHT22;23486;51.956;5.888;2023-04-01T23:13:16;7.00;99.90
37642;DHT22;23486;51.956;5.888;2023-04-01T23:15:44;7.00;99.90
37642;DHT22;23486;51.956;5.888;2023-04-01T23:21:23;7.00;99.90
37642;DHT22;23486;51.956;5.888;2023-04-01T23:29:14;7.00;99.90
37642;DHT22;23486;51.956;5.888;2023-04-01T23:31:42;7.00;99.90
37642;DHT22;23486;51.956;5.888;2023-04-01T23:36:42;7.00;99.90
37642;DHT22;23486;51.956;5.888;2023-04-01T23:41:46;6.90;99.90
37642;DHT22;23486;51.956;5.888;2023-04-01T23:44:13;6.90;99.90
37642;DHT22;23486;51.956;5.888;2023-04-01T23:46:40;6.90;99.90
37642;DHT22;23486;51.956;5.888;2023-04-01T23:49:28;6.90;99.90
37642;DHT22;23486;51.956;5.888;2023-04-01T23:52:25;6.90;99.90
37642;DHT22;23486;51.956;5.888;2023-04-01T23:54:55;6.80;99.90
37642;DHT22;23486;51.956;5.888;2023-04-01T23:57:33;6.80;99.90
